Chaparral Airport


Codes: SKHA/CPL
Name: Chaparral Airport
City: Chaparral
Country: Colombia
Elevation: 2730 ft.

Photos at Chaparral Airport


   Photos courtesy of SpottingLog. You can add your own sightings and photos by signing up for a free trial today.



No photos found.

Weather at Chaparral Airport


Time (UTC)DescriptionTempratureWindCloud coverageVisibilityPressureHumidity
17-Jun-2024 06:00Overcast Clouds19°C4 mph, W100%10000m1014hPa73%
17-Jun-2024 09:00Overcast Clouds19°C4 mph, W100%10000m1014hPa73%
17-Jun-2024 12:00Overcast Clouds20°C2 mph, W100%10000m1015hPa73%
17-Jun-2024 15:00Overcast Clouds25°C2 mph, SE100%10000m1014hPa59%
17-Jun-2024 18:00Overcast Clouds28°C4 mph, SE100%10000m1010hPa53%
17-Jun-2024 21:00Overcast Clouds28°C2 mph, SE86%10000m1008hPa54%
18-Jun-2024 00:00Broken Clouds22°C4 mph, NW76%10000m1010hPa75%
18-Jun-2024 03:00Broken Clouds21°C4 mph, NW61%10000m1013hPa72%
18-Jun-2024 06:00Light Rain19°C4 mph, W79%10000m1013hPa79%
18-Jun-2024 09:00Light Rain19°C4 mph, NW98%10000m1012hPa82%
18-Jun-2024 12:00Overcast Clouds20°C2 mph, W93%10000m1013hPa79%
18-Jun-2024 15:00Broken Clouds26°C4 mph, SE61%10000m1012hPa62%
18-Jun-2024 18:00Broken Clouds28°C4 mph, E64%10000m1009hPa58%
18-Jun-2024 21:00Light Rain27°C4 mph, NE78%10000m1007hPa65%
19-Jun-2024 00:00Light Rain21°C4 mph, NW89%10000m1010hPa91%
19-Jun-2024 03:00Moderate Rain20°C4 mph, NW98%10000m1012hPa92%
19-Jun-2024 06:00Light Rain19°C4 mph, W94%10000m1012hPa92%
19-Jun-2024 09:00Light Rain19°C4 mph, W90%10000m1012hPa90%
19-Jun-2024 12:00Light Rain20°C0 mph, NW90%10000m1013hPa85%
19-Jun-2024 15:00Light Rain21°C0 mph, N100%10000m1014hPa86%
19-Jun-2024 18:00Overcast Clouds28°C4 mph, SE90%10000m1009hPa57%
19-Jun-2024 21:00Overcast Clouds27°C2 mph, E91%10000m1006hPa64%
20-Jun-2024 00:00Light Rain21°C4 mph, NW91%8098m1009hPa92%
20-Jun-2024 03:00Moderate Rain20°C4 mph, NW69%10000m1011hPa93%
20-Jun-2024 06:00Moderate Rain20°C4 mph, NW84%10000m1011hPa94%
20-Jun-2024 09:00Moderate Rain20°C2 mph, NW100%10000m1011hPa93%
20-Jun-2024 12:00Light Rain20°C2 mph, NW100%10000m1013hPa92%
20-Jun-2024 15:00Light Rain21°C0 mph, NW100%10000m1014hPa93%
20-Jun-2024 18:00Light Rain26°C4 mph, SE100%10000m1011hPa70%
20-Jun-2024 21:00Light Rain21°C0 mph, N95%10000m1011hPa95%
21-Jun-2024 00:00Light Rain20°C2 mph, W98%10000m1013hPa91%
21-Jun-2024 03:00Light Rain20°C2 mph, W100%10000m1014hPa90%
21-Jun-2024 06:00Overcast Clouds19°C2 mph, W98%10000m1014hPa89%
21-Jun-2024 09:00Light Rain19°C2 mph, W100%10000m1014hPa96%
21-Jun-2024 12:00Light Rain19°C0 mph, SW100%10000m1015hPa94%
21-Jun-2024 15:00Light Rain19°C2 mph, SW99%10000m1017hPa98%
21-Jun-2024 18:00Light Rain21°C2 mph, S99%10000m1014hPa89%
21-Jun-2024 21:00Light Rain22°C0 mph, E80%10000m1011hPa85%
22-Jun-2024 00:00Light Rain20°C2 mph, NW84%10000m1013hPa90%
22-Jun-2024 03:00Light Rain20°C2 mph, NW100%10000m1016hPa88%